sensor_id;sensor_type;location;lat;lon;timestamp;P1;P2;P0
85811;PMS5003;76679;52.146;20.718;2024-02-21T00:00:33;2.00;2.00;1.75
85811;PMS5003;76679;52.146;20.718;2024-02-21T00:02:58;2.00;2.00;1.50
85811;PMS5003;76679;52.146;20.718;2024-02-21T00:05:27;1.00;1.00;1.00
85811;PMS5003;76679;52.146;20.718;2024-02-21T00:07:52;2.00;2.00;1.25
85811;PMS5003;76679;52.146;20.718;2024-02-21T00:10:17;2.50;2.50;2.00
85811;PMS5003;76679;52.146;20.718;2024-02-21T00:12:43;3.25;2.75;1.75
85811;PMS5003;76679;52.146;20.718;2024-02-21T00:15:08;2.75;2.75;2.00
85811;PMS5003;76679;52.146;20.718;2024-02-21T00:17:34;2.00;2.00;2.00
85811;PMS5003;76679;52.146;20.718;2024-02-21T00:19:59;2.00;2.00;2.00
85811;PMS5003;76679;52.146;20.718;2024-02-21T00:22:25;1.00;1.00;1.00
85811;PMS5003;76679;52.146;20.718;2024-02-21T00:24:53;2.00;2.00;1.60
85811;PMS5003;76679;52.146;20.718;2024-02-21T00:27:18;3.00;3.00;2.50
85811;PMS5003;76679;52.146;20.718;2024-02-21T00:29:43;2.00;2.00;2.00
85811;PMS5003;76679;52.146;20.718;2024-02-21T00:32:09;2.00;2.00;1.25
85811;PMS5003;76679;52.146;20.718;2024-02-21T00:34:34;3.00;3.00;1.75
85811;PMS5003;76679;52.146;20.718;2024-02-21T00:37:00;1.00;1.00;1.00
85811;PMS5003;76679;52.146;20.718;2024-02-21T00:39:26;1.00;1.00;0.25
85811;PMS5003;76679;52.146;20.718;2024-02-21T00:41:51;0.00;0.00;0.00
85811;PMS5003;76679;52.146;20.718;2024-02-21T00:44:16;2.25;2.25;2.00
85811;PMS5003;76679;52.146;20.718;2024-02-21T00:46:42;1.00;1.00;1.00
85811;PMS5003;76679;52.146;20.718;2024-02-21T00:49:07;1.00;1.00;1.00
85811;PMS5003;76679;52.146;20.718;2024-02-21T00:51:33;1.50;1.50;1.25
85811;PMS5003;76679;52.146;20.718;2024-02-21T00:53:58;1.50;1.50;1.00
85811;PMS5003;76679;52.146;20.718;2024-02-21T00:56:23;2.00;2.00;1.00
85811;PMS5003;76679;52.146;20.718;2024-02-21T00:58:49;2.00;2.00;1.50
85811;PMS5003;76679;52.146;20.718;2024-02-21T01:01:20;1.00;1.00;1.00
85811;PMS5003;76679;52.146;20.718;2024-02-21T01:03:47;1.60;1.60;1.40
85811;PMS5003;76679;52.146;20.718;2024-02-21T01:06:12;2.00;2.00;1.00
85811;PMS5003;76679;52.146;20.718;2024-02-21T01:08:37;2.00;2.00;1.00
85811;PMS5003;76679;52.146;20.718;2024-02-21T01:11:03;1.75;1.75;1.75
85811;PMS5003;76679;52.146;20.718;2024-02-21T01:13:28;0.75;0.75;0.75
85811;PMS5003;76679;52.146;20.718;2024-02-21T01:15:54;2.25;2.25;2.00
85811;PMS5003;76679;52.146;20.718;2024-02-21T01:18:19;1.00;1.00;1.00
85811;PMS5003;76679;52.146;20.718;2024-02-21T01:20:44;2.00;2.00;2.00
85811;PMS5003;76679;52.146;20.718;2024-02-21T01:23:10;1.00;1.00;0.50
85811;PMS5003;76679;52.146;20.718;2024-02-21T01:25:35;1.00;1.00;1.00
85811;PMS5003;76679;52.146;20.718;2024-02-21T01:28:00;2.00;2.00;1.00
85811;PMS5003;76679;52.146;20.718;2024-02-21T01:30:26;1.50;1.50;1.00
85811;PMS5003;76679;52.146;20.718;2024-02-21T01:32:51;1.00;1.00;1.00
85811;PMS5003;76679;52.146;20.718;2024-02-21T01:35:16;1.25;1.25;1.00
85811;PMS5003;76679;52.146;20.718;2024-02-21T01:37:43;2.00;2.00;1.40
85811;PMS5003;76679;52.146;20.718;2024-02-21T01:40:08;1.00;1.00;0.50
85811;PMS5003;76679;52.146;20.718;2024-02-21T01:42:37;1.80;1.80;1.00
85811;PMS5003;76679;52.146;20.718;2024-02-21T01:45:04;1.00;1.00;1.00
85811;PMS5003;76679;52.146;20.718;2024-02-21T01:47:29;1.00;1.00;1.00
85811;PMS5003;76679;52.146;20.718;2024-02-21T01:49:55;1.00;1.00;1.00
85811;PMS5003;76679;52.146;20.718;2024-02-21T01:52:20;1.00;1.00;1.00
85811;PMS5003;76679;52.146;20.718;2024-02-21T01:54:46;1.00;1.00;1.00
85811;PMS5003;76679;52.146;20.718;2024-02-21T01:57:12;1.00;1.00;1.00
85811;PMS5003;76679;52.146;20.718;2024-02-21T01:59:38;1.00;1.00;1.00
85811;PMS5003;76679;52.146;20.718;2024-02-21T02:02:03;1.25;1.25;1.00
85811;PMS5003;76679;52.146;20.718;2024-02-21T02:04:29;1.00;1.00;1.00
85811;PMS5003;76679;52.146;20.718;2024-02-21T02:06:54;1.00;1.00;1.00
85811;PMS5003;76679;52.146;20.718;2024-02-21T02:09:20;2.00;2.00;2.00
85811;PMS5003;76679;52.146;20.718;2024-02-21T02:11:46;1.00;1.00;0.75
85811;PMS5003;76679;52.146;20.718;2024-02-21T02:14:11;0.00;0.00;0.00
85811;PMS5003;76679;52.146;20.718;2024-02-21T02:16:37;1.50;1.50;1.00
85811;PMS5003;76679;52.146;20.718;2024-02-21T02:19:02;1.00;1.00;1.00
85811;PMS5003;76679;52.146;20.718;2024-02-21T02:21:32;1.00;1.00;0.50
85811;PMS5003;76679;52.146;20.718;2024-02-21T02:24:04;1.00;1.00;1.00
85811;PMS5003;76679;52.146;20.718;2024-02-21T02:26:30;2.00;2.00;2.00
85811;PMS5003;76679;52.146;20.718;2024-02-21T02:28:55;1.25;1.25;1.00
85811;PMS5003;76679;52.146;20.718;2024-02-21T02:31:20;0.00;0.00;0.00
85811;PMS5003;76679;52.146;20.718;2024-02-21T02:33:46;1.00;1.00;1.00
85811;PMS5003;76679;52.146;20.718;2024-02-21T02:36:13;1.40;1.40;1.00
85811;PMS5003;76679;52.146;20.718;2024-02-21T02:38:38;1.00;1.00;1.00
85811;PMS5003;76679;52.146;20.718;2024-02-21T02:41:03;1.25;1.25;1.00
85811;PMS5003;76679;52.146;20.718;2024-02-21T02:43:29;1.50;1.50;1.00
85811;PMS5003;76679;52.146;20.718;2024-02-21T02:45:54;1.00;1.00;1.00
85811;PMS5003;76679;52.146;20.718;2024-02-21T02:48:20;1.00;1.00;1.00
85811;PMS5003;76679;52.146;20.718;2024-02-21T02:50:46;1.00;1.00;1.00
85811;PMS5003;76679;52.146;20.718;2024-02-21T02:53:11;1.75;1.75;1.00
85811;PMS5003;76679;52.146;20.718;2024-02-21T02:55:37;1.00;1.00;1.00
85811;PMS5003;76679;52.146;20.718;2024-02-21T02:58:02;1.00;1.00;1.00
85811;PMS5003;76679;52.146;20.718;2024-02-21T03:00:28;1.25;1.25;1.00
85811;PMS5003;76679;52.146;20.718;2024-02-21T03:02:53;1.75;1.75;1.75
85811;PMS5003;76679;52.146;20.718;2024-02-21T03:05:19;1.75;1.75;1.00
85811;PMS5003;76679;52.146;20.718;2024-02-21T03:07:46;1.60;1.60;1.40
85811;PMS5003;76679;52.146;20.718;2024-02-21T03:10:12;1.00;1.00;1.00
85811;PMS5003;76679;52.146;20.718;2024-02-21T03:12:38;1.00;1.00;1.00
85811;PMS5003;76679;52.146;20.718;2024-02-21T03:15:04;1.00;1.00;1.00
85811;PMS5003;76679;52.146;20.718;2024-02-21T03:17:30;1.00;1.00;1.00
85811;PMS5003;76679;52.146;20.718;2024-02-21T03:19:57;1.40;1.40;1.00
85811;PMS5003;76679;52.146;20.718;2024-02-21T03:22:22;0.00;0.00;0.00
85811;PMS5003;76679;52.146;20.718;2024-02-21T03:24:48;1.00;1.00;1.00
85811;PMS5003;76679;52.146;20.718;2024-02-21T03:27:13;1.00;1.00;1.00
85811;PMS5003;76679;52.146;20.718;2024-02-21T03:29:39;2.00;2.00;1.00
85811;PMS5003;76679;52.146;20.718;2024-02-21T03:32:04;0.50;0.50;0.25
85811;PMS5003;76679;52.146;20.718;2024-02-21T03:34:29;2.00;2.00;1.00
85811;PMS5003;76679;52.146;20.718;2024-02-21T03:36:55;0.50;0.50;0.00
85811;PMS5003;76679;52.146;20.718;2024-02-21T03:39:20;1.50;1.50;1.00
85811;PMS5003;76679;52.146;20.718;2024-02-21T03:41:46;2.00;2.00;1.00
85811;PMS5003;76679;52.146;20.718;2024-02-21T03:44:12;1.25;1.25;1.00
85811;PMS5003;76679;52.146;20.718;2024-02-21T03:46:37;1.00;1.00;1.00
85811;PMS5003;76679;52.146;20.718;2024-02-21T03:49:02;1.00;1.00;1.00
85811;PMS5003;76679;52.146;20.718;2024-02-21T03:51:28;1.50;1.50;1.00
85811;PMS5003;76679;52.146;20.718;2024-02-21T03:53:53;1.00;1.00;1.00
85811;PMS5003;76679;52.146;20.718;2024-02-21T03:56:18;1.75;1.75;1.25
85811;PMS5003;76679;52.146;20.718;2024-02-21T03:58:44;1.00;1.00;1.00
85811;PMS5003;76679;52.146;20.718;2024-02-21T04:01:09;0.00;0.00;0.00
85811;PMS5003;76679;52.146;20.718;2024-02-21T04:03:34;2.00;2.00;2.00
85811;PMS5003;76679;52.146;20.718;2024-02-21T04:06:00;1.00;1.00;0.25
85811;PMS5003;76679;52.146;20.718;2024-02-21T04:08:25;1.00;1.00;1.00
85811;PMS5003;76679;52.146;20.718;2024-02-21T04:10:51;2.00;2.00;1.00
85811;PMS5003;76679;52.146;20.718;2024-02-21T04:13:16;1.00;1.00;1.00
85811;PMS5003;76679;52.146;20.718;2024-02-21T04:15:42;1.25;1.25;1.00
85811;PMS5003;76679;52.146;20.718;2024-02-21T04:18:07;1.00;1.00;1.00
85811;PMS5003;76679;52.146;20.718;2024-02-21T04:20:33;1.00;1.00;1.00
85811;PMS5003;76679;52.146;20.718;2024-02-21T04:22:59;1.00;1.00;0.60
85811;PMS5003;76679;52.146;20.718;2024-02-21T04:25:25;1.00;1.00;1.00
85811;PMS5003;76679;52.146;20.718;2024-02-21T04:27:51;1.20;1.20;1.20
85811;PMS5003;76679;52.146;20.718;2024-02-21T04:30:16;1.75;1.75;1.50
85811;PMS5003;76679;52.146;20.718;2024-02-21T04:32:42;1.00;1.00;1.00
85811;PMS5003;76679;52.146;20.718;2024-02-21T04:35:08;1.25;1.25;1.00
85811;PMS5003;76679;52.146;20.718;2024-02-21T04:37:33;1.50;1.50;1.00
85811;PMS5003;76679;52.146;20.718;2024-02-21T04:39:59;1.00;1.00;1.00
85811;PMS5003;76679;52.146;20.718;2024-02-21T04:42:24;1.00;1.00;1.00
85811;PMS5003;76679;52.146;20.718;2024-02-21T04:44:50;1.00;1.00;1.00
85811;PMS5003;76679;52.146;20.718;2024-02-21T04:47:15;1.50;1.50;1.00
85811;PMS5003;76679;52.146;20.718;2024-02-21T04:49:41;1.00;1.00;1.00
85811;PMS5003;76679;52.146;20.718;2024-02-21T04:52:06;2.00;2.00;2.00
85811;PMS5003;76679;52.146;20.718;2024-02-21T04:54:32;2.00;2.00;1.50
85811;PMS5003;76679;52.146;20.718;2024-02-21T04:56:57;1.75;1.75;1.75
85811;PMS5003;76679;52.146;20.718;2024-02-21T04:59:22;1.00;1.00;1.00
85811;PMS5003;76679;52.146;20.718;2024-02-21T05:01:47;2.00;2.00;2.00
85811;PMS5003;76679;52.146;20.718;2024-02-21T05:04:13;1.00;1.00;1.00
85811;PMS5003;76679;52.146;20.718;2024-02-21T05:06:39;1.00;1.00;1.00
85811;PMS5003;76679;52.146;20.718;2024-02-21T05:09:05;1.00;1.00;1.00
85811;PMS5003;76679;52.146;20.718;2024-02-21T05:11:31;2.00;2.00;1.80
85811;PMS5003;76679;52.146;20.718;2024-02-21T05:13:57;2.00;2.00;2.00
85811;PMS5003;76679;52.146;20.718;2024-02-21T05:16:22;1.00;1.00;1.00
85811;PMS5003;76679;52.146;20.718;2024-02-21T05:18:47;2.00;2.00;2.00
85811;PMS5003;76679;52.146;20.718;2024-02-21T05:21:13;2.50;2.50;2.00
85811;PMS5003;76679;52.146;20.718;2024-02-21T05:23:38;1.00;1.00;1.00
85811;PMS5003;76679;52.146;20.718;2024-02-21T05:26:04;2.80;2.80;2.00
85811;PMS5003;76679;52.146;20.718;2024-02-21T05:28:30;2.60;2.60;2.20
85811;PMS5003;76679;52.146;20.718;2024-02-21T05:30:56;2.00;2.00;1.75
85811;PMS5003;76679;52.146;20.718;2024-02-21T05:33:21;3.50;3.50;3.00
85811;PMS5003;76679;52.146;20.718;2024-02-21T05:35:47;3.00;3.00;2.00
85811;PMS5003;76679;52.146;20.718;2024-02-21T05:38:16;2.00;2.00;2.00
85811;PMS5003;76679;52.146;20.718;2024-02-21T05:40:42;2.00;2.00;1.60
85811;PMS5003;76679;52.146;20.718;2024-02-21T05:43:07;2.50;2.50;2.00
85811;PMS5003;76679;52.146;20.718;2024-02-21T05:45:33;2.25;2.25;2.00
85811;PMS5003;76679;52.146;20.718;2024-02-21T05:47:58;3.25;3.25;2.25
85811;PMS5003;76679;52.146;20.718;2024-02-21T05:50:24;1.00;1.00;1.00
85811;PMS5003;76679;52.146;20.718;2024-02-21T05:52:51;2.00;2.00;2.00
85811;PMS5003;76679;52.146;20.718;2024-02-21T05:55:17;2.40;2.40;2.20
85811;PMS5003;76679;52.146;20.718;2024-02-21T05:57:43;2.75;2.75;2.00
85811;PMS5003;76679;52.146;20.718;2024-02-21T06:00:08;3.25;3.25;2.50
85811;PMS5003;76679;52.146;20.718;2024-02-21T06:02:34;3.00;3.00;2.80
85811;PMS5003;76679;52.146;20.718;2024-02-21T06:04:59;2.00;2.00;2.00
85811;PMS5003;76679;52.146;20.718;2024-02-21T06:07:25;3.00;3.00;2.25
85811;PMS5003;76679;52.146;20.718;2024-02-21T06:09:50;2.00;2.00;2.00
85811;PMS5003;76679;52.146;20.718;2024-02-21T06:12:15;3.50;3.50;2.75
85811;PMS5003;76679;52.146;20.718;2024-02-21T06:14:41;3.00;3.00;2.25
85811;PMS5003;76679;52.146;20.718;2024-02-21T06:17:06;3.00;3.00;3.00
85811;PMS5003;76679;52.146;20.718;2024-02-21T06:19:31;3.00;3.00;2.00
85811;PMS5003;76679;52.146;20.718;2024-02-21T06:21:57;3.00;3.00;2.25
85811;PMS5003;76679;52.146;20.718;2024-02-21T06:24:22;4.00;4.00;3.25
85811;PMS5003;76679;52.146;20.718;2024-02-21T06:26:47;3.00;3.00;2.00
85811;PMS5003;76679;52.146;20.718;2024-02-21T06:29:13;2.00;2.00;2.00
85811;PMS5003;76679;52.146;20.718;2024-02-21T06:31:38;4.00;4.00;3.00
85811;PMS5003;76679;52.146;20.718;2024-02-21T06:34:05;3.20;3.20;3.00
85811;PMS5003;76679;52.146;20.718;2024-02-21T06:36:30;3.25;3.25;3.00
85811;PMS5003;76679;52.146;20.718;2024-02-21T06:38:56;2.00;2.00;2.00
85811;PMS5003;76679;52.146;20.718;2024-02-21T06:41:21;3.50;3.50;3.00
85811;PMS5003;76679;52.146;20.718;2024-02-21T06:43:47;2.25;2.25;2.25
85811;PMS5003;76679;52.146;20.718;2024-02-21T06:46:22;3.00;3.00;2.25
85811;PMS5003;76679;52.146;20.718;2024-02-21T06:48:50;4.00;4.00;3.00
85811;PMS5003;76679;52.146;20.718;2024-02-21T06:51:16;4.00;4.00;3.00
85811;PMS5003;76679;52.146;20.718;2024-02-21T06:53:41;4.00;4.00;3.00
85811;PMS5003;76679;52.146;20.718;2024-02-21T06:56:07;2.00;2.00;1.00
85811;PMS5003;76679;52.146;20.718;2024-02-21T06:58:32;4.00;4.00;3.25
85811;PMS5003;76679;52.146;20.718;2024-02-21T07:00:58;4.67;4.67;4.00
85811;PMS5003;76679;52.146;20.718;2024-02-21T07:03:23;5.33;5.33;4.00
85811;PMS5003;76679;52.146;20.718;2024-02-21T07:05:49;5.00;5.00;4.00
85811;PMS5003;76679;52.146;20.718;2024-02-21T07:08:15;3.25;3.25;2.50
85811;PMS5003;76679;52.146;20.718;2024-02-21T07:10:40;3.00;3.00;3.00
85811;PMS5003;76679;52.146;20.718;2024-02-21T07:13:06;4.25;4.25;3.50
85811;PMS5003;76679;52.146;20.718;2024-02-21T07:15:31;5.00;5.00;4.00
85811;PMS5003;76679;52.146;20.718;2024-02-21T07:17:57;6.25;6.25;4.50
85811;PMS5003;76679;52.146;20.718;2024-02-21T07:20:23;3.00;3.00;3.00
85811;PMS5003;76679;52.146;20.718;2024-02-21T07:22:48;5.00;5.00;3.67
85811;PMS5003;76679;52.146;20.718;2024-02-21T07:25:14;5.67;5.67;5.00
85811;PMS5003;76679;52.146;20.718;2024-02-21T07:27:39;20.67;20.00;12.00
85811;PMS5003;76679;52.146;20.718;2024-02-21T07:30:05;22.00;21.00;13.00
85811;PMS5003;76679;52.146;20.718;2024-02-21T07:32:31;10.00;10.00;5.00
85811;PMS5003;76679;52.146;20.718;2024-02-21T07:34:56;22.50;22.50;14.00
85811;PMS5003;76679;52.146;20.718;2024-02-21T07:37:22;14.00;14.00;8.33
85811;PMS5003;76679;52.146;20.718;2024-02-21T07:39:47;12.33;12.33;8.00
85811;PMS5003;76679;52.146;20.718;2024-02-21T07:42:12;12.00;12.00;7.33
85811;PMS5003;76679;52.146;20.718;2024-02-21T07:44:38;8.33;8.33;7.33
85811;PMS5003;76679;52.146;20.718;2024-02-21T07:47:03;10.33;10.33;6.67
85811;PMS5003;76679;52.146;20.718;2024-02-21T07:49:28;9.00;9.00;8.00
85811;PMS5003;76679;52.146;20.718;2024-02-21T07:51:54;12.33;11.67;9.00
85811;PMS5003;76679;52.146;20.718;2024-02-21T07:54:19;12.33;12.33;7.67
85811;PMS5003;76679;52.146;20.718;2024-02-21T07:56:45;10.00;10.00;6.33
85811;PMS5003;76679;52.146;20.718;2024-02-21T07:59:10;10.00;10.00;5.00
85811;PMS5003;76679;52.146;20.718;2024-02-21T08:01:35;12.33;12.33;8.00
85811;PMS5003;76679;52.146;20.718;2024-02-21T08:04:01;13.00;13.00;7.67
85811;PMS5003;76679;52.146;20.718;2024-02-21T08:06:27;12.00;12.00;7.00
85811;PMS5003;76679;52.146;20.718;2024-02-21T08:08:53;9.33;9.33;6.00
85811;PMS5003;76679;52.146;20.718;2024-02-21T08:11:18;10.67;10.67;7.00
85811;PMS5003;76679;52.146;20.718;2024-02-21T08:13:43;8.00;8.00;6.33
85811;PMS5003;76679;52.146;20.718;2024-02-21T08:16:09;13.00;13.00;8.00
85811;PMS5003;76679;52.146;20.718;2024-02-21T08:18:34;10.00;10.00;7.00
85811;PMS5003;76679;52.146;20.718;2024-02-21T08:21:03;10.00;9.25;6.00
85811;PMS5003;76679;52.146;20.718;2024-02-21T08:23:29;8.50;8.50;7.00
85811;PMS5003;76679;52.146;20.718;2024-02-21T08:25:54;10.67;10.00;7.00
85811;PMS5003;76679;52.146;20.718;2024-02-21T08:28:20;11.33;11.33;6.67
85811;PMS5003;76679;52.146;20.718;2024-02-21T08:30:45;10.00;10.00;7.00
85811;PMS5003;76679;52.146;20.718;2024-02-21T08:33:13;9.20;9.20;6.40
85811;PMS5003;76679;52.146;20.718;2024-02-21T08:35:40;7.80;7.40;5.40
85811;PMS5003;76679;52.146;20.718;2024-02-21T08:38:05;8.25;8.25;6.00
85811;PMS5003;76679;52.146;20.718;2024-02-21T08:40:30;9.00;9.00;5.75
85811;PMS5003;76679;52.146;20.718;2024-02-21T08:42:56;10.00;10.00;6.00
85811;PMS5003;76679;52.146;20.718;2024-02-21T08:45:21;9.00;9.00;7.00
85811;PMS5003;76679;52.146;20.718;2024-02-21T08:47:46;10.00;10.00;7.50
85811;PMS5003;76679;52.146;20.718;2024-02-21T08:50:12;10.00;10.00;7.25
85811;PMS5003;76679;52.146;20.718;2024-02-21T08:52:37;9.25;9.25;6.75
85811;PMS5003;76679;52.146;20.718;2024-02-21T08:55:03;9.75;9.75;6.50
85811;PMS5003;76679;52.146;20.718;2024-02-21T08:57:28;7.50;7.50;5.00
85811;PMS5003;76679;52.146;20.718;2024-02-21T08:59:54;8.50;8.50;7.00
85811;PMS5003;76679;52.146;20.718;2024-02-21T09:02:19;7.75;7.75;5.25
85811;PMS5003;76679;52.146;20.718;2024-02-21T09:04:44;8.50;8.50;5.00
85811;PMS5003;76679;52.146;20.718;2024-02-21T09:07:10;8.75;8.75;7.00
85811;PMS5003;76679;52.146;20.718;2024-02-21T09:09:36;7.00;7.00;5.40
85811;PMS5003;76679;52.146;20.718;2024-02-21T09:12:03;7.40;7.40;5.20
85811;PMS5003;76679;52.146;20.718;2024-02-21T09:14:32;9.00;9.00;6.00
85811;PMS5003;76679;52.146;20.718;2024-02-21T09:16:58;6.80;6.80;4.40
85811;PMS5003;76679;52.146;20.718;2024-02-21T09:19:23;9.00;9.00;7.00
85811;PMS5003;76679;52.146;20.718;2024-02-21T09:21:49;8.25;8.25;6.00
85811;PMS5003;76679;52.146;20.718;2024-02-21T09:24:14;7.75;7.75;5.25
85811;PMS5003;76679;52.146;20.718;2024-02-21T09:26:40;7.25;7.25;5.50
85811;PMS5003;76679;52.146;20.718;2024-02-21T09:29:05;8.50;8.50;6.00
85811;PMS5003;76679;52.146;20.718;2024-02-21T09:31:31;6.50;6.50;5.00
85811;PMS5003;76679;52.146;20.718;2024-02-21T09:33:56;6.75;6.75;6.00
85811;PMS5003;76679;52.146;20.718;2024-02-21T09:36:22;6.25;6.25;4.50
85811;PMS5003;76679;52.146;20.718;2024-02-21T09:38:48;7.40;7.40;5.00
85811;PMS5003;76679;52.146;20.718;2024-02-21T09:41:17;7.00;7.00;4.25
85811;PMS5003;76679;52.146;20.718;2024-02-21T09:43:44;8.60;8.60;6.60
85811;PMS5003;76679;52.146;20.718;2024-02-21T09:46:17;8.00;8.00;6.60
85811;PMS5003;76679;52.146;20.718;2024-02-21T09:51:20;9.00;9.00;5.40
85811;PMS5003;76679;52.146;20.718;2024-02-21T09:53:46;8.00;8.00;6.00
85811;PMS5003;76679;52.146;20.718;2024-02-21T09:56:13;7.80;7.80;5.00
85811;PMS5003;76679;52.146;20.718;2024-02-21T09:58:38;6.75;6.75;5.00
85811;PMS5003;76679;52.146;20.718;2024-02-21T10:01:06;5.20;5.20;4.00
85811;PMS5003;76679;52.146;20.718;2024-02-21T10:03:31;7.25;7.25;5.00
85811;PMS5003;76679;52.146;20.718;2024-02-21T10:05:58;7.60;7.00;5.00
85811;PMS5003;76679;52.146;20.718;2024-02-21T10:08:25;6.60;6.60;5.00
85811;PMS5003;76679;52.146;20.718;2024-02-21T10:10:51;5.50;5.50;4.00
85811;PMS5003;76679;52.146;20.718;2024-02-21T10:13:24;5.00;5.00;3.40
85811;PMS5003;76679;52.146;20.718;2024-02-21T10:16:03;6.20;6.20;5.00
85811;PMS5003;76679;52.146;20.718;2024-02-21T10:18:29;5.00;5.00;4.00
85811;PMS5003;76679;52.146;20.718;2024-02-21T10:21:01;6.00;6.00;4.00
85811;PMS5003;76679;52.146;20.718;2024-02-21T10:23:48;5.40;5.40;4.40
85811;PMS5003;76679;52.146;20.718;2024-02-21T10:26:14;7.40;7.40;4.80
85811;PMS5003;76679;52.146;20.718;2024-02-21T10:28:41;6.60;6.60;4.40
85811;PMS5003;76679;52.146;20.718;2024-02-21T10:31:25;5.40;5.40;4.00
85811;PMS5003;76679;52.146;20.718;2024-02-21T10:33:55;5.00;4.80;3.20
85811;PMS5003;76679;52.146;20.718;2024-02-21T10:36:22;7.60;7.60;5.40
85811;PMS5003;76679;52.146;20.718;2024-02-21T10:38:49;5.80;5.80;4.40
85811;PMS5003;76679;52.146;20.718;2024-02-21T10:41:14;6.00;6.00;4.00
85811;PMS5003;76679;52.146;20.718;2024-02-21T10:43:43;5.00;5.00;4.00
85811;PMS5003;76679;52.146;20.718;2024-02-21T10:46:14;7.00;7.00;5.20
85811;PMS5003;76679;52.146;20.718;2024-02-21T10:48:44;5.00;5.00;4.00
85811;PMS5003;76679;52.146;20.718;2024-02-21T10:51:14;6.00;6.00;5.00
85811;PMS5003;76679;52.146;20.718;2024-02-21T10:53:44;7.60;7.60;5.20
85811;PMS5003;76679;52.146;20.718;2024-02-21T10:56:32;7.80;7.80;5.00
85811;PMS5003;76679;52.146;20.718;2024-02-21T10:59:02;7.20;7.00;5.00
85811;PMS5003;76679;52.146;20.718;2024-02-21T11:01:29;8.40;8.40;6.00
85811;PMS5003;76679;52.146;20.718;2024-02-21T11:03:57;5.20;5.20;4.00
85811;PMS5003;76679;52.146;20.718;2024-02-21T11:06:24;6.60;6.60;4.20
85811;PMS5003;76679;52.146;20.718;2024-02-21T11:09:06;5.80;5.80;5.00
85811;PMS5003;76679;52.146;20.718;2024-02-21T11:11:36;7.20;7.20;5.20
85811;PMS5003;76679;52.146;20.718;2024-02-21T11:14:03;6.00;6.00;4.80
85811;PMS5003;76679;52.146;20.718;2024-02-21T11:16:40;5.00;5.00;3.00
85811;PMS5003;76679;52.146;20.718;2024-02-21T11:19:22;3.00;3.00;2.00
85811;PMS5003;76679;52.146;20.718;2024-02-21T11:21:50;6.60;6.60;5.40
85811;PMS5003;76679;52.146;20.718;2024-02-21T11:24:25;4.60;4.60;3.80
85811;PMS5003;76679;52.146;20.718;2024-02-21T11:26:52;5.20;5.20;4.00
85811;PMS5003;76679;52.146;20.718;2024-02-21T11:29:22;4.50;4.25;3.00
85811;PMS5003;76679;52.146;20.718;2024-02-21T11:31:49;6.20;6.20;4.80
85811;PMS5003;76679;52.146;20.718;2024-02-21T11:34:17;6.00;6.00;5.00
85811;PMS5003;76679;52.146;20.718;2024-02-21T11:36:51;6.00;6.00;5.00
85811;PMS5003;76679;52.146;20.718;2024-02-21T11:39:26;6.60;6.60;4.80
85811;PMS5003;76679;52.146;20.718;2024-02-21T11:42:02;6.00;6.00;4.80
85811;PMS5003;76679;52.146;20.718;2024-02-21T11:44:29;6.00;6.00;4.80
85811;PMS5003;76679;52.146;20.718;2024-02-21T11:46:54;5.80;5.80;5.00
85811;PMS5003;76679;52.146;20.718;2024-02-21T11:49:20;7.75;7.75;5.75
85811;PMS5003;76679;52.146;20.718;2024-02-21T11:51:45;5.75;5.75;4.50
85811;PMS5003;76679;52.146;20.718;2024-02-21T11:54:11;6.75;6.00;5.00
85811;PMS5003;76679;52.146;20.718;2024-02-21T11:56:38;4.20;4.20;3.40
85811;PMS5003;76679;52.146;20.718;2024-02-21T11:59:03;6.25;6.25;5.00
85811;PMS5003;76679;52.146;20.718;2024-02-21T12:01:31;5.00;5.00;4.00
85811;PMS5003;76679;52.146;20.718;2024-02-21T12:03:56;6.50;6.50;4.00
85811;PMS5003;76679;52.146;20.718;2024-02-21T12:06:22;5.00;5.00;4.00
85811;PMS5003;76679;52.146;20.718;2024-02-21T12:08:47;7.00;7.00;4.50
85811;PMS5003;76679;52.146;20.718;2024-02-21T12:11:19;6.50;6.50;4.75
85811;PMS5003;76679;52.146;20.718;2024-02-21T12:13:47;5.40;5.40;4.00
85811;PMS5003;76679;52.146;20.718;2024-02-21T12:16:14;5.00;5.00;4.00
85811;PMS5003;76679;52.146;20.718;2024-02-21T12:18:41;7.60;7.60;4.60
85811;PMS5003;76679;52.146;20.718;2024-02-21T12:21:06;7.00;7.00;5.00
85811;PMS5003;76679;52.146;20.718;2024-02-21T12:23:32;6.00;6.00;4.25
85811;PMS5003;76679;52.146;20.718;2024-02-21T12:25:58;5.00;5.00;4.00
85811;PMS5003;76679;52.146;20.718;2024-02-21T12:28:24;6.00;6.00;4.80
85811;PMS5003;76679;52.146;20.718;2024-02-21T12:30:49;6.00;6.00;5.00
85811;PMS5003;76679;52.146;20.718;2024-02-21T12:33:15;6.75;6.75;5.00
85811;PMS5003;76679;52.146;20.718;2024-02-21T12:35:40;6.00;6.00;5.00
85811;PMS5003;76679;52.146;20.718;2024-02-21T12:38:06;8.50;8.50;6.00
85811;PMS5003;76679;52.146;20.718;2024-02-21T12:40:31;4.00;4.00;2.00
85811;PMS5003;76679;52.146;20.718;2024-02-21T12:42:58;8.00;8.00;6.00
85811;PMS5003;76679;52.146;20.718;2024-02-21T12:45:25;7.00;7.00;6.00
85811;PMS5003;76679;52.146;20.718;2024-02-21T12:47:50;6.00;6.00;5.00
85811;PMS5003;76679;52.146;20.718;2024-02-21T12:50:16;6.00;5.75;4.00
85811;PMS5003;76679;52.146;20.718;2024-02-21T12:52:41;7.50;7.50;6.50
85811;PMS5003;76679;52.146;20.718;2024-02-21T12:55:06;8.50;8.50;5.50
85811;PMS5003;76679;52.146;20.718;2024-02-21T12:57:35;6.00;6.00;5.00
85811;PMS5003;76679;52.146;20.718;2024-02-21T13:00:00;6.75;6.75;5.25
85811;PMS5003;76679;52.146;20.718;2024-02-21T13:02:25;5.00;5.00;4.00
85811;PMS5003;76679;52.146;20.718;2024-02-21T13:04:51;7.50;7.50;6.00
85811;PMS5003;76679;52.146;20.718;2024-02-21T13:07:16;4.00;4.00;3.50
85811;PMS5003;76679;52.146;20.718;2024-02-21T13:09:42;5.50;5.50;4.00
85811;PMS5003;76679;52.146;20.718;2024-02-21T13:12:07;6.00;6.00;5.00
85811;PMS5003;76679;52.146;20.718;2024-02-21T13:14:33;6.75;6.75;6.00
85811;PMS5003;76679;52.146;20.718;2024-02-21T13:17:00;5.60;5.60;4.80
85811;PMS5003;76679;52.146;20.718;2024-02-21T13:19:25;6.50;6.50;5.00
85811;PMS5003;76679;52.146;20.718;2024-02-21T13:21:50;6.00;6.00;5.00
85811;PMS5003;76679;52.146;20.718;2024-02-21T13:24:16;4.25;4.25;3.00
85811;PMS5003;76679;52.146;20.718;2024-02-21T13:26:41;6.00;6.00;5.00
85811;PMS5003;76679;52.146;20.718;2024-02-21T13:29:06;5.00;5.00;4.25
85811;PMS5003;76679;52.146;20.718;2024-02-21T13:31:32;6.00;6.00;6.00
85811;PMS5003;76679;52.146;20.718;2024-02-21T13:33:57;5.50;5.50;4.00
85811;PMS5003;76679;52.146;20.718;2024-02-21T13:36:22;6.75;6.75;5.00
85811;PMS5003;76679;52.146;20.718;2024-02-21T13:38:48;6.20;6.20;5.80
85811;PMS5003;76679;52.146;20.718;2024-02-21T13:41:14;6.00;6.00;5.25
85811;PMS5003;76679;52.146;20.718;2024-02-21T13:43:39;5.75;5.75;4.25
85811;PMS5003;76679;52.146;20.718;2024-02-21T13:46:04;6.00;6.00;5.00
85811;PMS5003;76679;52.146;20.718;2024-02-21T13:48:34;6.20;6.20;5.00
85811;PMS5003;76679;52.146;20.718;2024-02-21T13:51:00;5.00;5.00;4.00
85811;PMS5003;76679;52.146;20.718;2024-02-21T13:53:27;6.40;6.40;5.00
85811;PMS5003;76679;52.146;20.718;2024-02-21T13:55:52;5.00;5.00;3.75
85811;PMS5003;76679;52.146;20.718;2024-02-21T13:58:18;7.00;7.00;5.75
85811;PMS5003;76679;52.146;20.718;2024-02-21T14:00:43;5.00;5.00;4.00
85811;PMS5003;76679;52.146;20.718;2024-02-21T14:03:08;6.00;6.00;5.00
85811;PMS5003;76679;52.146;20.718;2024-02-21T14:05:34;8.20;8.20;6.80